Melbourne Airport Weather Forecast Tullamarine (YMML – MEL)

METAR

TTF METAR YMML 210800Z 01011KT 9999 FEW030 09/03 Q1021 RMK RF00.0/000.0 NOSIG

TAF

TAF YMML 210521Z 2106/2212 36012KT CAVOK FM211500 36018G28KT CAVOK FM212100 36024G40KT CAVOK RMK FM211200 MOD TURB BLW 5000FT TILL212100 FM212100 MOD/SEV TURB BLW 5000FT T 12 08 05 05 Q 1021 1022 1022 1021

QNH 

1021

Temperature & Dew Point

14° DP3